»·PEaware :: UAL250 KEWR-CYYZ

UAL250 :: KEWR-CYYZ

FLIGHT INFORMATION

Flight Status: Arrived
Operator:
United Airlines
More flights by this operator :: More flights under this callsign
Pilot: Andrew J. (13363)
Aircraft: AIRBUS A319
(A319)
More flights by this aircraft type
Origin: KEWR Newark Intl
United States
Destination: CYYZ Toronto/Pearson Intl
Canada
More flights between these airports :: More routes between these airports
Route: PORTT4 PORTT GAYEL Q818 WOZEE LINNG2
File this flight plan on PilotEdge
Remarks:
Altitude:
(Current/Filed)
38,000ft
Speed:
(Current/Filed)
453kts
Departed: 05-Oct-20 12:30 AM
Arrived: 05-Oct-20 01:32 AM
Distance/Time
Traveled:
301nm/1:02
Distance/Time
To Go:
Arrived

Flight Plot

Page will automatically refresh every two minutes.

Flight plan parsing failed; only flown route is shown


Map Options




Map Legend


Flown Route
Filed Route
Departure Airport
Arrival Airport
Navaid (VOR, NDB)
Fix

Horizontal Profiles

Position Reports

Time Latitude Longitude Heading Altitude Ground
Speed
05-Oct-20 00:16 40.695531 -74.171768 212 15ft 0kts
05-Oct-20 00:17 40.695531 -74.171768 212 15ft 0kts
05-Oct-20 00:18 40.695289 -74.171676 134 15ft 1kts
05-Oct-20 00:19 40.693912 -74.170742 185 15ft 12kts
05-Oct-20 00:20 40.689562 -74.173224 205 15ft 19kts
05-Oct-20 00:21 40.685150 -74.176031 205 15ft 16kts
05-Oct-20 00:22 40.683854 -74.176846 206 15ft 15kts
05-Oct-20 00:23 40.683854 -74.176846 206 15ft 15kts
05-Oct-20 00:24 40.683854 -74.176846 206 15ft 15kts
05-Oct-20 00:25 40.682023 -74.177998 206 15ft 14kts
05-Oct-20 00:26 40.677771 -74.179484 206 15ft 17kts
05-Oct-20 00:27 40.676061 -74.180456 160 15ft 0kts
05-Oct-20 00:28 40.675666 -74.179749 113 15ft 7kts
05-Oct-20 00:29 40.688971 -74.170834 25 70ft 148kts
05-Oct-20 00:30 40.720539 -74.139532 38 2396ft 156kts
05-Oct-20 00:31 40.760040 -74.095014 33 4323ft 221kts
05-Oct-20 00:32 40.814742 -74.106926 307 7591ft 229kts
05-Oct-20 00:33 40.876777 -74.137678 342 9914ft 276kts
05-Oct-20 00:34 40.957896 -74.168122 338 11623ft 337kts
05-Oct-20 00:35 41.058131 -74.209923 339 13151ft 397kts
05-Oct-20 00:36 41.165547 -74.254901 338 15776ft 411kts
05-Oct-20 00:37 41.276964 -74.302017 336 18020ft 425kts
05-Oct-20 00:38 41.390000 -74.355151 321 19977ft 427kts
05-Oct-20 00:39 41.458482 -74.475493 293 21871ft 411kts
05-Oct-20 00:40 41.517781 -74.613712 292 23602ft 420kts
05-Oct-20 00:41 41.577639 -74.753023 291 25226ft 426kts
05-Oct-20 00:42 41.636670 -74.890875 290 27025ft 422kts
05-Oct-20 00:43 41.694753 -75.027617 291 28423ft 425kts
05-Oct-20 00:44 41.753743 -75.166775 291 29725ft 429kts
05-Oct-20 00:45 41.812484 -75.305626 291 31206ft 424kts
05-Oct-20 00:46 41.869863 -75.442128 290 32575ft 419kts
05-Oct-20 00:47 41.926733 -75.578117 290 33832ft 414kts
05-Oct-20 00:48 41.983042 -75.713713 289 34952ft 410kts
05-Oct-20 00:49 42.038422 -75.847596 289 35917ft 408kts
05-Oct-20 00:50 42.093673 -75.981441 289 36762ft 407kts
05-Oct-20 00:51 42.148720 -76.114880 288 37347ft 406kts
05-Oct-20 00:52 42.195881 -76.255165 284 37835ft 401kts
05-Oct-20 00:53 42.240364 -76.394256 284 38106ft 400kts
05-Oct-20 00:54 42.284661 -76.533466 284 38112ft 400kts
05-Oct-20 00:55 42.328614 -76.672362 283 38113ft 401kts
05-Oct-20 00:56 42.372383 -76.811516 283 38108ft 401kts
05-Oct-20 00:57 42.415879 -76.950954 288 38100ft 406kts
05-Oct-20 00:58 42.460580 -77.094270 290 38103ft 416kts
05-Oct-20 00:59 42.505461 -77.238729 290 38104ft 415kts
05-Oct-20 01:00 42.550097 -77.383531 290 38104ft 415kts
05-Oct-20 01:01 42.594416 -77.528136 290 38106ft 415kts
05-Oct-20 01:02 42.638817 -77.673784 289 38113ft 416kts
05-Oct-20 01:03 42.680796 -77.817160 288 37492ft 403kts
05-Oct-20 01:04 42.720383 -77.960114 288 36538ft 403kts
05-Oct-20 01:05 42.760012 -78.103130 288 34731ft 406kts
05-Oct-20 01:06 42.800078 -78.248449 288 31911ft 412kts
05-Oct-20 01:07 42.843662 -78.407336 288 28384ft 426kts
05-Oct-20 01:08 42.888330 -78.571199 288 24489ft 439kts
05-Oct-20 01:09 42.933373 -78.726728 295 21764ft 422kts
05-Oct-20 01:10 43.002896 -78.854256 307 19445ft 407kts
05-Oct-20 01:11 43.074911 -78.973282 306 17142ft 391kts
05-Oct-20 01:12 43.144808 -79.089415 306 14714ft 382kts
05-Oct-20 01:13 43.212329 -79.202429 306 12211ft 377kts
05-Oct-20 01:14 43.274375 -79.306595 306 11455ft 323kts
05-Oct-20 01:15 43.322363 -79.367532 330 11136ft 291kts
05-Oct-20 01:16 43.348115 -79.384030 332 11046ft 273kts
05-Oct-20 01:17 43.413212 -79.425402 331 10266ft 248kts
05-Oct-20 01:18 43.474781 -79.465048 331 9150ft 241kts
05-Oct-20 01:19 43.534336 -79.503460 331 8152ft 231kts
05-Oct-20 01:20 43.593830 -79.535764 5 7974ft 238kts
05-Oct-20 01:21 43.645936 -79.472251 46 7987ft 245kts
05-Oct-20 01:22 43.693778 -79.401991 45 7987ft 245kts
05-Oct-20 01:23 43.741748 -79.331787 45 7609ft 240kts
05-Oct-20 01:24 43.794461 -79.296627 340 6745ft 215kts
05-Oct-20 01:25 43.826594 -79.358037 265 5015ft 199kts
05-Oct-20 01:26 43.798261 -79.422722 230 3945ft 179kts
05-Oct-20 01:27 43.764119 -79.473607 228 3026ft 163kts
05-Oct-20 01:28 43.736613 -79.513626 229 2239ft 136kts
05-Oct-20 01:29 43.709989 -79.552290 228 1478ft 134kts
05-Oct-20 01:30 43.687980 -79.584329 228 862ft 133kts
05-Oct-20 01:31 43.667378 -79.614279 226 528ft 40kts
05-Oct-20 01:32 43.666609 -79.618657 46 540ft 11kts
05-Oct-20 01:33 43.670002 -79.613742 47 532ft 23kts
05-Oct-20 01:34 43.672160 -79.611833 317 532ft 6kts
05-Oct-20 01:35 43.673716 -79.613844 317 542ft 12kts
05-Oct-20 01:36 43.677014 -79.615857 50 550ft 16kts
05-Oct-20 01:37 43.677304 -79.613757 122 550ft 0kts
05-Oct-20 01:38 43.677304 -79.613757 122 550ft 0kts
05-Oct-20 01:39 43.677304 -79.613757 122 550ft 0kts
05-Oct-20 01:41 43.677304 -79.613757 122 550ft 0kts

Navigation Log

Ident Type
Flight plan parsing failed, navigation log unavailable